Time;durP1;ratioP1;P1;durP2;ratioP2;P2;SDS_P1;SDS_P2;PMS_P1;PMS_P2;Temp;Humidity;BMP_temperature;BMP_pressure;BME280_temperature;BME280_humidity;BME280_pressure;Samples;Min_cycle;Max_cycle;Signal;HPM_P1;HPM_P2
2021/06/15 00:01:58;;;;;;;19.30;10.15;;;;;;;15.05;100.00;99294.49;1698741;84;21532;-73
2021/06/15 00:04:25;;;;;;;16.30;10.68;;;;;;;15.02;100.00;99288.28;1687825;83;21021;-73
2021/06/15 00:06:51;;;;;;;13.83;10.13;;;;;;;15.02;100.00;99287.51;1702380;83;21503;-73
2021/06/15 00:09:19;;;;;;;11.00;9.33;;;;;;;15.06;100.00;99288.38;1696818;83;20966;-73
2021/06/15 00:11:47;;;;;;;13.62;10.28;;;;;;;15.14;100.00;99288.81;1713547;83;21430;-73
2021/06/15 00:14:13;;;;;;;15.08;10.38;;;;;;;15.23;100.00;99294.19;1681186;84;21817;-73
2021/06/15 00:16:40;;;;;;;15.13;10.48;;;;;;;15.30;100.00;99291.63;1692397;83;20987;-73
2021/06/15 00:19:06;;;;;;;12.88;10.08;;;;;;;15.36;100.00;99297.94;1683788;83;20974;-73
2021/06/15 00:21:34;;;;;;;13.32;10.45;;;;;;;15.38;100.00;99301.73;1700132;83;20981;-73
2021/06/15 00:24:01;;;;;;;13.40;11.05;;;;;;;15.38;100.00;99298.39;1696285;83;21052;-74
2021/06/15 00:26:27;;;;;;;12.90;10.78;;;;;;;15.39;100.00;99297.80;1700855;83;21744;-73
2021/06/15 00:28:54;;;;;;;11.88;10.08;;;;;;;15.38;100.00;99293.43;1714039;83;20937;-73
2021/06/15 00:31:23;;;;;;;11.15;9.83;;;;;;;15.38;100.00;99297.58;1699521;83;21520;-74
2021/06/15 00:33:48;;;;;;;19.80;10.93;;;;;;;15.35;100.00;99298.28;1688552;83;21478;-73
2021/06/15 00:36:15;;;;;;;16.73;10.25;;;;;;;15.33;100.00;99288.96;1693174;83;21054;-74
2021/06/15 00:38:41;;;;;;;10.93;9.68;;;;;;;15.27;100.00;99286.22;1705184;83;21546;-73
2021/06/15 00:41:08;;;;;;;13.35;9.95;;;;;;;15.20;100.00;99286.83;1703767;83;21033;-74
2021/06/15 00:43:34;;;;;;;14.45;9.93;;;;;;;15.11;100.00;99283.98;1679471;84;20888;-73
2021/06/15 00:46:01;;;;;;;12.10;9.23;;;;;;;15.02;100.00;99284.75;1706554;84;20946;-74
2021/06/15 00:48:34;;;;;;;14.55;10.58;;;;;;;14.93;100.00;99282.13;1695340;83;21575;-74
2021/06/15 00:51:01;;;;;;;12.47;9.08;;;;;;;14.91;100.00;99289.16;1701579;83;21155;-74
2021/06/15 00:53:28;;;;;;;12.13;9.98;;;;;;;14.84;100.00;99283.66;1701460;83;20891;-73
2021/06/15 00:55:57;;;;;;;16.97;10.98;;;;;;;14.76;100.00;99285.17;1690686;83;21006;-74
2021/06/15 00:58:23;;;;;;;13.20;10.63;;;;;;;14.76;100.00;99283.79;1701380;84;21470;-74
2021/06/15 01:00:50;;;;;;;14.10;10.58;;;;;;;14.77;100.00;99286.20;1684896;83;20988;-74
2021/06/15 01:03:16;;;;;;;19.67;11.48;;;;;;;14.77;100.00;99279.88;1711173;83;21754;-74
2021/06/15 01:05:44;;;;;;;11.97;10.58;;;;;;;14.76;100.00;99285.98;1688724;83;21083;-74
2021/06/15 01:08:36;;;;;;;15.70;11.33;;;;;;;14.78;100.00;99287.81;1708198;83;21572;-74
2021/06/15 01:11:37;;;;;;;14.10;11.73;;;;;;;14.80;100.00;99280.55;1704185;83;21513;-72
2021/06/15 01:14:45;;;;;;;16.60;11.10;;;;;;;14.80;100.00;99282.73;1691670;83;21006;-74
2021/06/15 01:17:16;;;;;;;13.13;10.75;;;;;;;14.84;100.00;99285.61;1684030;83;21051;-74
2021/06/15 01:20:16;;;;;;;16.05;11.22;;;;;;;14.83;100.00;99284.80;1657040;83;21036;-74
2021/06/15 01:23:12;;;;;;;15.00;10.45;;;;;;;14.80;100.00;99287.47;1695654;83;21076;-75
2021/06/15 01:26:17;;;;;;;14.55;10.85;;;;;;;14.79;100.00;99284.47;1693171;83;21061;-74
2021/06/15 01:28:58;;;;;;;15.70;10.45;;;;;;;14.83;100.00;99292.29;1693402;83;20976;-74
2021/06/15 01:31:47;;;;;;;15.32;10.43;;;;;;;14.85;100.00;99291.36;1683762;83;21224;-73
2021/06/15 01:34:31;;;;;;;13.08;10.15;;;;;;;14.88;100.00;99296.19;1687358;83;21511;-73
2021/06/15 01:37:21;;;;;;;24.75;10.82;;;;;;;14.89;100.00;99296.42;1687863;83;21781;-73
2021/06/15 01:39:55;;;;;;;36.63;13.30;;;;;;;14.90;100.00;99293.08;1699199;84;20989;-73
2021/06/15 01:42:39;;;;;;;20.02;10.70;;;;;;;14.91;100.00;99294.11;1688970;83;20994;-74
2021/06/15 01:45:25;;;;;;;16.15;10.10;;;;;;;14.94;100.00;99292.03;1697551;83;21177;-74
2021/06/15 01:48:06;;;;;;;12.50;9.10;;;;;;;14.94;100.00;99292.03;1667928;84;20998;-74
2021/06/15 01:50:36;;;;;;;16.52;10.48;;;;;;;14.96;100.00;99299.97;1696364;83;21010;-74
2021/06/15 01:53:08;;;;;;;13.20;9.95;;;;;;;14.96;100.00;99295.82;1687582;83;20977;-74
2021/06/15 01:55:36;;;;;;;13.78;10.10;;;;;;;14.98;100.00;99297.66;1677867;83;21458;-74
2021/06/15 01:58:04;;;;;;;12.15;9.15;;;;;;;14.99;100.00;99293.73;1694115;83;21553;-73
2021/06/15 02:00:31;;;;;;;14.58;10.05;;;;;;;14.99;100.00;99292.36;1685750;83;20990;-74
2021/06/15 02:03:00;;;;;;;12.53;9.20;;;;;;;14.98;100.00;99295.70;1687557;83;21099;-74
2021/06/15 02:05:40;;;;;;;14.03;9.83;;;;;;;14.99;100.00;99291.78;1692232;82;21047;-74
2021/06/15 02:08:07;;;;;;;12.88;9.38;;;;;;;14.98;100.00;99286.02;1725003;81;20944;-73
2021/06/15 02:10:36;;;;;;;11.25;9.90;;;;;;;15.00;100.00;99289.24;1724133;82;21144;-73
2021/06/15 02:13:10;;;;;;;14.83;9.45;;;;;;;15.00;100.00;99297.53;1715861;82;21539;-74
2021/06/15 02:15:42;;;;;;;14.28;10.48;;;;;;;14.99;100.00;99289.59;1720123;82;21471;-73
2021/06/15 02:18:13;;;;;;;12.00;9.75;;;;;;;14.98;100.00;99290.75;1691715;82;21428;-74
2021/06/15 02:21:01;;;;;;;11.08;9.05;;;;;;;14.97;100.00;99289.95;1701963;83;21051;-74
2021/06/15 02:23:27;;;;;;;10.45;9.33;;;;;;;14.94;100.00;99290.64;1720393;82;21148;-73
2021/06/15 02:26:02;;;;;;;10.08;9.08;;;;;;;14.92;100.00;99288.81;1722795;82;21568;-72
2021/06/15 02:28:31;;;;;;;13.32;9.13;;;;;;;14.91;100.00;99292.73;1731844;81;21157;-74
2021/06/15 02:30:59;;;;;;;12.80;10.05;;;;;;;14.89;100.00;99289.51;1740492;81;21019;-74
2021/06/15 02:33:28;;;;;;;12.10;9.60;;;;;;;14.89;100.00;99289.51;1719921;82;20897;-74
2021/06/15 02:36:02;;;;;;;12.33;9.08;;;;;;;14.92;100.00;99290.19;1716211;82;21160;-75
2021/06/15 02:38:36;;;;;;;14.73;9.58;;;;;;;14.98;100.00;99285.22;1720935;82;21009;-74
2021/06/15 02:41:11;;;;;;;13.15;10.05;;;;;;;15.05;100.00;99290.34;1717860;81;21133;-73
2021/06/15 02:43:39;;;;;;;15.75;9.58;;;;;;;15.13;100.00;99297.69;1726470;81;21033;-73
2021/06/15 02:46:07;;;;;;;11.48;9.90;;;;;;;15.18;100.00;99298.81;1717197;82;20927;-73
2021/06/15 02:48:36;;;;;;;14.70;10.38;;;;;;;15.23;100.00;99301.11;1709389;82;21129;-73
2021/06/15 02:51:04;;;;;;;15.30;9.95;;;;;;;15.28;100.00;99298.89;1713297;82;21427;-72
2021/06/15 02:53:37;;;;;;;10.75;9.73;;;;;;;15.32;100.00;99301.76;1725322;81;20916;-73
2021/06/15 02:56:18;;;;;;;16.05;9.90;;;;;;;15.35;100.00;99294.94;1707753;82;21026;-73
2021/06/15 02:58:45;;;;;;;12.65;9.55;;;;;;;15.38;100.00;99294.23;1728312;81;20979;-74
2021/06/15 03:01:12;;;;;;;12.65;9.00;;;;;;;15.42;100.00;99298.48;1723801;81;21604;-74
2021/06/15 03:03:40;;;;;;;14.23;9.65;;;;;;;15.44;100.00;99296.97;1716377;81;21014;-72
2021/06/15 03:06:08;;;;;;;15.15;10.20;;;;;;;15.48;100.00;99292.92;1722513;82;20991;-72
2021/06/15 03:08:35;;;;;;;16.57;9.30;;;;;;;15.53;100.00;99296.81;1694989;83;21020;-73
2021/06/15 03:11:05;;;;;;;12.88;9.65;;;;;;;15.59;100.00;99298.19;1722627;82;21491;-73
2021/06/15 03:13:46;;;;;;;11.43;9.38;;;;;;;15.64;100.00;99300.66;1720254;82;21140;-72
2021/06/15 03:16:17;;;;;;;12.03;9.25;;;;;;;15.70;100.00;99299.25;1728039;81;21490;-73
2021/06/15 03:18:58;;;;;;;10.10;9.08;;;;;;;15.76;100.00;99300.59;1728125;80;20899;-73
2021/06/15 03:21:25;;;;;;;11.48;8.75;;;;;;;15.82;100.00;99296.98;1720106;80;20904;-72
2021/06/15 03:24:02;;;;;;;10.58;8.30;;;;;;;15.90;100.00;99294.62;1726435;82;21202;-73
2021/06/15 03:27:07;;;;;;;13.38;8.90;;;;;;;15.96;100.00;99298.73;1723032;80;21758;-73
2021/06/15 03:29:39;;;;;;;9.70;8.58;;;;;;;16.02;100.00;99292.34;1728964;80;20920;-73
2021/06/15 03:32:12;;;;;;;11.25;8.73;;;;;;;16.09;100.00;99298.05;1720922;83;20905;-73
2021/06/15 03:34:44;;;;;;;15.72;9.08;;;;;;;16.13;100.00;99294.21;1731547;81;21478;-74
2021/06/15 03:37:26;;;;;;;13.30;8.73;;;;;;;16.19;100.00;99293.33;1732783;80;21089;-73
2021/06/15 03:39:56;;;;;;;11.60;7.85;;;;;;;16.23;100.00;99298.38;1737802;81;21093;-73
2021/06/15 03:42:29;;;;;;;10.08;7.62;;;;;;;16.29;100.00;99302.47;1720631;81;20984;-73
2021/06/15 03:45:01;;;;;;;10.18;7.92;;;;;;;16.33;100.00;99301.98;1713067;82;21043;-72
2021/06/15 03:47:28;;;;;;;13.45;8.95;;;;;;;16.39;100.00;99305.28;1712162;82;21071;-72
2021/06/15 03:49:55;;;;;;;12.98;10.35;;;;;;;16.45;100.00;99311.56;1721386;82;20995;-72
2021/06/15 03:52:23;;;;;;;10.98;9.48;;;;;;;16.50;100.00;99314.64;1724523;81;21641;-72
2021/06/15 03:54:49;;;;;;;14.60;8.58;;;;;;;16.56;100.00;99306.27;1725763;81;20908;-72
2021/06/15 03:57:16;;;;;;;10.75;8.53;;;;;;;16.62;100.00;99306.80;1724441;81;20955;-73
2021/06/15 03:59:42;;;;;;;10.38;8.93;;;;;;;16.66;100.00;99304.94;1725851;82;20939;-73
2021/06/15 04:02:09;;;;;;;11.80;8.55;;;;;;;16.72;100.00;99312.61;1726508;82;20999;-73
2021/06/15 04:04:37;;;;;;;9.40;8.50;;;;;;;16.78;100.00;99309.75;1718330;81;21122;-74
2021/06/15 04:07:04;;;;;;;15.03;8.15;;;;;;;16.84;100.00;99309.69;1726557;81;21121;-73
2021/06/15 04:09:35;;;;;;;13.53;8.73;;;;;;;16.92;100.00;99316.19;1701509;82;21624;-72
2021/06/15 04:12:02;;;;;;;11.12;8.00;;;;;;;16.98;100.00;99317.50;1733635;81;21514;-72
2021/06/15 04:14:28;;;;;;;9.43;7.97;;;;;;;17.04;100.00;99321.59;1724002;82;21612;-73
2021/06/15 04:16:55;;;;;;;12.78;7.80;;;;;;;17.12;100.00;99321.97;1715415;82;21805;-76
2021/06/15 04:19:26;;;;;;;12.53;8.45;;;;;;;17.20;100.00;99321.53;1720232;81;21538;-76
2021/06/15 04:21:54;;;;;;;11.22;8.33;;;;;;;17.29;100.00;99329.05;1730687;80;21008;-71
2021/06/15 04:24:24;;;;;;;13.68;8.40;;;;;;;17.36;100.00;99323.61;1716250;82;21065;-69
2021/06/15 04:26:52;;;;;;;10.60;8.08;;;;;;;17.43;100.00;99320.98;1722784;81;21051;-78
2021/06/15 04:29:19;;;;;;;10.08;8.40;;;;;;;17.50;100.00;99328.64;1728956;81;21613;-79
2021/06/15 04:31:46;;;;;;;11.20;7.97;;;;;;;17.59;100.00;99327.02;1717454;81;21554;-70
2021/06/15 04:34:14;;;;;;;18.10;8.48;;;;;;;17.65;100.00;99330.55;1720511;82;21046;-69
2021/06/15 04:36:41;;;;;;;15.60;8.85;;;;;;;17.70;100.00;99337.77;1681590;82;20956;-75
2021/06/15 04:39:17;;;;;;;15.50;8.63;;;;;;;17.77;100.00;99333.74;1718459;82;21063;-70
2021/06/15 04:42:00;;;;;;;16.30;9.25;;;;;;;17.86;100.00;99332.12;1726328;81;21146;-73
2021/06/15 04:44:32;;;;;;;14.13;8.83;;;;;;;17.92;100.00;99325.05;1724341;81;21079;-73
2021/06/15 04:47:25;;;;;;;;;;;;;;;17.99;99.95;99325.18;1724177;81;20917;-75
2021/06/15 04:50:15;;;;;;;13.93;8.13;;;;;;;18.05;99.11;99321.73;1718557;82;20166;-82
2021/06/15 04:52:41;;;;;;;12.37;9.05;;;;;;;18.15;99.84;99323.88;1725957;82;21109;-71
2021/06/15 04:55:08;;;;;;;11.40;8.78;;;;;;;18.28;99.82;99324.49;1724746;81;21549;-70
2021/06/15 04:57:44;;;;;;;13.80;8.65;;;;;;;18.37;99.41;99323.64;1694058;82;20932;-82
2021/06/15 05:00:11;;;;;;;12.43;8.88;;;;;;;18.46;98.66;99326.16;1724085;82;20995;-72
2021/06/15 05:02:39;;;;;;;10.90;8.68;;;;;;;18.54;98.50;99320.90;1724138;81;20960;-71
2021/06/15 05:05:11;;;;;;;10.35;8.75;;;;;;;18.65;98.25;99323.28;1722242;82;21427;-73
2021/06/15 05:07:40;;;;;;;12.65;8.65;;;;;;;18.75;98.61;99321.24;1717743;82;21162;-72
2021/06/15 05:10:07;;;;;;;11.12;8.50;;;;;;;18.85;97.82;99321.18;1720060;81;21594;-75
2021/06/15 05:12:42;;;;;;;17.27;9.43;;;;;;;18.97;98.28;99328.49;1734716;81;21418;-70
2021/06/15 05:15:11;;;;;;;9.48;8.58;;;;;;;19.08;97.37;99326.04;1727492;81;21039;-74
2021/06/15 05:17:45;;;;;;;13.93;8.78;;;;;;;19.18;96.61;99329.34;1726938;81;21015;-73
2021/06/15 05:20:12;;;;;;;11.90;9.00;;;;;;;19.26;95.66;99331.03;1734713;81;21127;-71
2021/06/15 05:22:45;;;;;;;12.05;8.25;;;;;;;19.35;95.17;99330.15;1732262;81;21063;-71
2021/06/15 05:25:12;;;;;;;10.88;7.92;;;;;;;19.45;94.72;99333.64;1717525;81;20999;-72
2021/06/15 05:27:38;;;;;;;10.10;8.50;;;;;;;19.54;94.47;99327.81;1727664;82;21416;-72
2021/06/15 05:30:06;;;;;;;16.52;8.58;;;;;;;19.64;94.52;99331.31;1734677;82;21084;-72
2021/06/15 05:32:33;;;;;;;9.80;7.65;;;;;;;19.74;94.41;99325.02;1715951;81;21091;-72
2021/06/15 05:35:00;;;;;;;8.48;7.58;;;;;;;19.85;92.54;99323.73;1735036;82;20973;-72
2021/06/15 05:37:28;;;;;;;9.58;8.55;;;;;;;19.92;91.35;99325.20;1729912;81;21026;-72
2021/06/15 05:39:58;;;;;;;9.45;8.15;;;;;;;19.99;90.00;99328.85;1740360;82;20896;-78
2021/06/15 05:42:24;;;;;;;9.48;7.62;;;;;;;20.09;90.16;99325.37;1727996;82;20920;-69
2021/06/15 05:44:51;;;;;;;10.53;8.23;;;;;;;20.21;89.54;99329.84;1733688;82;21084;-70
2021/06/15 05:47:18;;;;;;;10.43;7.08;;;;;;;20.32;88.87;99331.30;1737184;81;21882;-72
2021/06/15 05:49:44;;;;;;;7.95;7.15;;;;;;;20.46;88.70;99331.45;1728500;82;20924;-72
2021/06/15 05:52:12;;;;;;;9.35;7.05;;;;;;;20.58;87.52;99329.73;1731883;82;21007;-72
2021/06/15 05:54:38;;;;;;;13.95;7.45;;;;;;;20.67;86.21;99329.41;1733169;81;21076;-73
2021/06/15 05:57:05;;;;;;;10.30;7.00;;;;;;;20.76;85.85;99330.66;1729812;81;21823;-73
2021/06/15 05:59:32;;;;;;;11.45;7.62;;;;;;;20.85;86.19;99329.48;1729293;82;21055;-75
2021/06/15 06:01:59;;;;;;;11.45;7.30;;;;;;;20.94;85.78;99325.16;1729628;82;21111;-71
2021/06/15 06:04:28;;;;;;;9.58;7.00;;;;;;;21.07;86.41;99323.63;1734865;82;21002;-69
2021/06/15 06:09:40;;;;;;;8.48;7.12;;;;;;;21.32;84.15;99324.38;1731621;82;21166;-70
2021/06/15 06:12:08;;;;;;;9.55;7.10;;;;;;;21.42;83.63;99324.38;1720553;82;21006;-69
2021/06/15 06:14:35;;;;;;;10.38;6.58;;;;;;;21.52;83.79;99318.62;1701644;83;21432;-70
2021/06/15 06:17:02;;;;;;;9.28;6.37;;;;;;;21.61;83.73;99319.05;1689802;83;20982;-71
2021/06/15 06:19:28;;;;;;;9.45;7.60;;;;;;;21.71;83.12;99321.08;1683969;83;21015;-71
2021/06/15 06:21:55;;;;;;;9.38;7.20;;;;;;;21.80;83.13;99321.30;1678266;84;21171;-72
2021/06/15 06:24:22;;;;;;;8.13;6.92;;;;;;;21.88;82.27;99319.52;1696061;83;20987;-71
2021/06/15 06:26:50;;;;;;;7.50;6.55;;;;;;;21.93;80.02;99321.92;1691646;83;20923;-72
2021/06/15 06:29:18;;;;;;;11.83;6.95;;;;;;;21.98;80.06;99320.70;1672504;84;20964;-70
2021/06/15 06:31:45;;;;;;;10.38;7.22;;;;;;;22.07;81.27;99315.55;1693276;83;21070;-72
2021/06/15 06:34:11;;;;;;;7.58;6.35;;;;;;;22.19;81.00;99319.34;1710521;82;21136;-72
2021/06/15 06:36:38;;;;;;;8.20;7.35;;;;;;;22.29;79.51;99311.56;1722540;81;20942;-72
2021/06/15 06:39:06;;;;;;;9.38;6.70;;;;;;;22.38;78.96;99314.75;1717285;81;21039;-68
2021/06/15 06:41:33;;;;;;;7.62;6.05;;;;;;;22.47;78.18;99316.34;1727545;82;20904;-71
2021/06/15 06:43:59;;;;;;;8.85;6.92;;;;;;;22.54;77.85;99308.72;1718764;82;20894;-71
2021/06/15 06:46:28;;;;;;;10.45;7.03;;;;;;;22.65;78.80;99308.09;1736694;81;20933;-71
2021/06/15 06:48:54;;;;;;;8.70;6.58;;;;;;;22.77;79.26;99303.28;1720043;82;20912;-70
2021/06/15 06:51:21;;;;;;;9.23;6.53;;;;;;;22.88;77.74;99302.08;1718147;82;21693;-71
2021/06/15 06:53:48;;;;;;;9.85;6.87;;;;;;;22.98;77.59;99304.05;1737603;81;20999;-71
2021/06/15 06:56:15;;;;;;;6.85;6.15;;;;;;;23.08;75.94;99302.42;1716534;82;21460;-71
2021/06/15 06:58:43;;;;;;;7.35;6.30;;;;;;;23.15;74.33;99299.56;1723935;82;21509;-72
2021/06/15 07:01:11;;;;;;;9.38;6.05;;;;;;;23.25;75.40;99300.73;1731618;81;20889;-70
2021/06/15 07:03:37;;;;;;;10.30;5.78;;;;;;;23.41;75.02;99298.86;1733741;82;21404;-71
2021/06/15 07:06:04;;;;;;;6.47;5.25;;;;;;;23.52;74.30;99296.19;1725120;82;20931;-71
2021/06/15 07:08:31;;;;;;;9.75;5.83;;;;;;;23.67;74.64;99299.75;1715142;82;20923;-72
2021/06/15 07:18:51;;;;;;;7.85;5.83;;;;;;;23.98;69.61;99302.91;1718756;82;21057;-74
2021/06/15 07:21:18;;;;;;;7.25;5.40;;;;;;;24.06;71.54;99300.05;1664780;84;20993;-81
2021/06/15 07:23:45;;;;;;;8.53;5.40;;;;;;;24.13;72.62;99300.80;1681112;83;21178;-79
2021/06/15 07:26:13;;;;;;;6.65;5.72;;;;;;;24.24;72.65;99294.50;1706007;83;21985;-74
2021/06/15 07:29:22;;;;;;;7.85;5.50;;;;;;;24.41;72.90;99305.38;1687086;83;20981;-77
2021/06/15 07:31:48;;;;;;;6.58;5.05;;;;;;;24.53;71.28;99299.25;1710887;83;21433;-76
2021/06/15 07:34:14;;;;;;;9.53;5.30;;;;;;;24.64;66.73;99297.74;1702349;83;20946;-78
2021/06/15 07:36:42;;;;;;;7.45;5.33;;;;;;;24.64;66.76;99303.35;1688062;83;21420;-78
2021/06/15 07:39:08;;;;;;;8.68;5.58;;;;;;;24.72;68.12;99299.27;1709037;82;21422;-74
2021/06/15 07:41:35;;;;;;;11.33;4.97;;;;;;;24.82;68.15;99307.37;1695887;83;21022;-75
2021/06/15 07:44:01;;;;;;;5.87;4.80;;;;;;;24.93;67.87;99295.40;1706828;83;21025;-76
2021/06/15 07:46:28;;;;;;;8.70;5.05;;;;;;;25.03;67.68;99286.09;1700341;84;20962;-75
2021/06/15 07:48:54;;;;;;;8.30;5.10;;;;;;;25.11;66.17;99291.80;1709138;83;20894;-75
2021/06/15 07:51:21;;;;;;;5.70;4.80;;;;;;;25.19;67.22;99282.69;1697302;83;22066;-75
2021/06/15 07:53:47;;;;;;;8.00;5.00;;;;;;;25.30;64.61;99279.93;1678342;83;20926;-75
2021/06/15 07:56:13;;;;;;;7.03;5.22;;;;;;;25.37;66.01;99276.23;1694734;83;21136;-75
2021/06/15 07:58:40;;;;;;;5.33;4.78;;;;;;;25.48;65.37;99276.84;1704835;83;21567;-75
2021/06/15 08:01:06;;;;;;;6.83;5.20;;;;;;;25.59;65.11;99270.47;1698521;83;20978;-75
2021/06/15 08:03:33;;;;;;;5.90;4.40;;;;;;;25.72;66.17;99275.55;1691183;84;21104;-75
2021/06/15 08:06:01;;;;;;;6.35;4.62;;;;;;;25.86;65.42;99269.09;1656792;85;21188;-75
2021/06/15 08:08:28;;;;;;;9.38;4.60;;;;;;;25.99;64.94;99266.48;1636442;85;20911;-74
2021/06/15 08:10:56;;;;;;;7.37;4.75;;;;;;;26.08;63.88;99265.30;1673577;84;21038;-75
2021/06/15 08:13:22;;;;;;;5.83;5.12;;;;;;;26.16;64.56;99256.93;1660842;85;21417;-75
2021/06/15 08:15:51;;;;;;;4.72;4.33;;;;;;;26.24;61.62;99265.44;1675190;84;20993;-75
2021/06/15 08:18:18;;;;;;;7.08;4.67;;;;;;;26.25;63.00;99264.21;1666515;84;20904;-73
2021/06/15 08:20:49;;;;;;;5.22;4.30;;;;;;;26.36;62.80;99265.47;1654649;84;20996;-74
2021/06/15 08:23:15;;;;;;;5.85;4.53;;;;;;;26.55;62.76;99255.47;1661867;85;21053;-74
2021/06/15 08:25:43;;;;;;;8.63;4.95;;;;;;;26.63;60.84;99256.91;1644977;86;21554;-75
2021/06/15 08:28:10;;;;;;;5.05;4.53;;;;;;;26.57;59.63;99257.25;1644193;86;21157;-75
2021/06/15 08:30:37;;;;;;;6.62;4.58;;;;;;;26.65;59.17;99248.20;1643407;86;20960;-74
2021/06/15 08:33:04;;;;;;;7.42;4.65;;;;;;;26.88;59.21;99240.32;1645928;85;20857;-75
2021/06/15 08:35:30;;;;;;;6.97;4.60;;;;;;;27.07;58.27;99242.98;1671356;85;20992;-75
2021/06/15 08:37:57;;;;;;;8.25;4.85;;;;;;;27.06;57.74;99250.45;1664072;84;21293;-75
2021/06/15 08:40:23;;;;;;;5.47;4.90;;;;;;;26.99;58.82;99245.77;1668920;85;21504;-75
2021/06/15 08:42:49;;;;;;;4.90;4.40;;;;;;;26.84;59.02;99255.70;1702340;82;21086;-72
2021/06/15 08:45:16;;;;;;;8.35;4.80;;;;;;;26.77;57.51;99243.96;1737538;82;21394;-73
2021/06/15 08:47:45;;;;;;;7.53;4.70;;;;;;;26.64;57.03;99250.84;1745245;82;21007;-72
2021/06/15 08:50:18;;;;;;;7.08;5.00;;;;;;;26.74;57.72;99242.01;1692465;82;21562;-73
2021/06/15 08:52:46;;;;;;;6.53;4.40;;;;;;;26.93;56.66;99237.00;1720044;82;21247;-72
2021/06/15 08:55:14;;;;;;;10.30;5.17;;;;;;;26.92;56.13;99243.86;1723031;82;21203;-72
2021/06/15 08:57:41;;;;;;;7.22;5.35;;;;;;;27.11;57.64;99245.73;1721702;81;21734;-72
2021/06/15 09:00:10;;;;;;;8.70;5.65;;;;;;;27.45;55.96;99242.54;1727638;82;20947;-73
2021/06/15 09:02:45;;;;;;;7.87;4.53;;;;;;;27.77;56.36;99244.63;1722496;82;21043;-73
2021/06/15 09:05:18;;;;;;;7.67;5.10;;;;;;;28.10;54.77;99241.98;1727777;82;21141;-72
2021/06/15 09:08:06;;;;;;;10.70;5.35;;;;;;;28.45;50.98;99240.89;1725839;82;21818;-73
2021/06/15 09:10:42;;;;;;;5.35;4.70;;;;;;;28.67;52.90;99240.49;1729004;82;20968;-72
2021/06/15 09:13:38;;;;;;;9.05;4.90;;;;;;;28.98;52.35;99230.15;1728737;82;21487;-71
2021/06/15 09:16:33;;;;;;;6.22;4.70;;;;;;;29.23;51.52;99231.62;1726551;82;21016;-72
2021/06/15 09:19:00;;;;;;;5.00;4.28;;;;;;;29.20;49.10;99225.45;1707531;83;21161;-72
2021/06/15 09:21:39;;;;;;;4.90;4.30;;;;;;;29.25;51.00;99225.69;1727240;82;20921;-71
2021/06/15 09:24:10;;;;;;;8.28;4.17;;;;;;;29.24;49.96;99231.17;1731176;82;21153;-71
2021/06/15 09:27:10;;;;;;;5.75;4.10;;;;;;;29.35;50.34;99228.64;1721301;82;21002;-72
2021/06/15 09:29:51;;;;;;;12.05;5.28;;;;;;;29.46;49.64;99223.48;1722738;82;21495;-71
2021/06/15 09:32:24;;;;;;;6.55;4.58;;;;;;;29.68;48.38;99223.57;1729222;82;21827;-72
2021/06/15 09:35:09;;;;;;;4.83;4.20;;;;;;;29.79;46.99;99222.61;1711197;81;21516;-72
2021/06/15 09:37:40;;;;;;;6.85;3.98;;;;;;;29.81;47.51;99220.11;1725855;81;21003;-72
2021/06/15 09:40:22;;;;;;;6.53;3.60;;;;;;;29.65;48.11;99220.23;1703288;82;21471;-72
2021/06/15 09:43:03;;;;;;;6.37;3.65;;;;;;;29.30;46.90;99217.27;1730451;82;21581;-74
2021/06/15 09:45:45;;;;;;;6.17;3.10;;;;;;;29.15;47.02;99221.77;1727831;83;21976;-72
2021/06/15 09:48:32;;;;;;;5.22;3.30;;;;;;;29.39;48.41;99218.81;1720517;81;21006;-75
2021/06/15 09:51:13;;;;;;;4.83;3.17;;;;;;;29.80;46.07;99211.45;1702579;83;21385;-72
2021/06/15 09:53:45;;;;;;;3.77;3.30;;;;;;;30.03;46.38;99209.70;1702348;82;21063;-72
2021/06/15 09:56:14;;;;;;;5.72;4.15;;;;;;;30.14;45.19;99205.86;1720360;82;21557;-73
2021/06/15 09:58:54;;;;;;;6.72;3.40;;;;;;;30.00;45.60;99204.95;1715775;82;20980;-73
2021/06/15 10:01:34;;;;;;;4.80;2.80;;;;;;;29.81;44.94;99203.93;1679781;83;21131;-72
2021/06/15 10:04:13;;;;;;;3.95;3.35;;;;;;;29.87;46.12;99206.36;1712479;83;21551;-73
2021/06/15 10:06:48;;;;;;;6.85;3.37;;;;;;;30.20;45.08;99211.11;1715987;82;21172;-72
2021/06/15 10:09:30;;;;;;;8.10;3.65;;;;;;;30.38;44.64;99205.45;1702200;82;21063;-73
2021/06/15 10:12:06;;;;;;;6.12;3.30;;;;;;;30.16;44.34;99201.16;1713761;82;22017;-73
2021/06/15 10:14:34;;;;;;;5.25;3.20;;;;;;;29.71;44.93;99207.11;1713978;81;21565;-72
2021/06/15 10:17:01;;;;;;;6.05;3.60;;;;;;;29.21;45.88;99204.42;1711627;82;21133;-72
2021/06/15 10:19:28;;;;;;;3.83;3.15;;;;;;;29.23;47.79;99201.94;1706066;82;20981;-72
2021/06/15 10:21:55;;;;;;;7.55;3.70;;;;;;;29.48;45.44;99197.72;1714709;82;21087;-73
2021/06/15 10:24:23;;;;;;;5.53;3.02;;;;;;;29.53;44.20;99195.74;1718058;82;21461;-72
2021/06/15 10:26:52;;;;;;;4.78;3.17;;;;;;;29.36;45.30;99193.47;1717641;80;21098;-72
2021/06/15 10:29:18;;;;;;;7.08;3.40;;;;;;;29.10;44.61;99194.06;1705618;82;21506;-71
2021/06/15 10:31:48;;;;;;;5.05;3.02;;;;;;;28.96;45.08;99186.02;1700640;82;21047;-71
2021/06/15 10:34:15;;;;;;;5.50;3.47;;;;;;;29.08;45.87;99182.42;1710622;82;21006;-73
2021/06/15 10:36:44;;;;;;;3.83;3.10;;;;;;;29.45;45.85;99177.45;1703047;82;21099;-72
2021/06/15 10:39:21;;;;;;;4.00;3.25;;;;;;;29.94;44.31;99174.20;1708055;82;21027;-71
2021/06/15 10:41:48;;;;;;;3.67;3.20;;;;;;;30.29;42.67;99172.80;1706193;82;20899;-72
2021/06/15 10:44:14;;;;;;;4.35;3.47;;;;;;;30.45;42.99;99179.09;1687866;82;21031;-72
2021/06/15 10:46:42;;;;;;;3.45;3.15;;;;;;;30.54;43.29;99176.95;1720701;81;21030;-72
2021/06/15 10:49:15;;;;;;;3.62;3.33;;;;;;;30.63;41.57;99174.19;1717196;82;21108;-72
2021/06/15 10:51:57;;;;;;;6.40;3.20;;;;;;;30.72;43.48;99167.17;1711528;82;21063;-72
2021/06/15 10:54:34;;;;;;;6.05;3.55;;;;;;;30.75;42.37;99163.42;1712837;81;21061;-72
2021/06/15 10:57:17;;;;;;;5.08;3.77;;;;;;;30.78;40.82;99166.75;1744470;81;20895;-71
2021/06/15 11:00:05;;;;;;;3.55;2.85;;;;;;;30.74;42.27;99167.50;1735650;81;21036;-71
2021/06/15 11:02:33;;;;;;;3.72;2.90;;;;;;;30.93;42.88;99167.63;1734103;82;21459;-71
2021/06/15 11:05:38;;;;;;;8.80;3.47;;;;;;;31.26;40.88;99165.13;1732016;81;20991;-71
2021/06/15 11:08:29;;;;;;;8.33;3.50;;;;;;;31.48;40.41;99165.23;1730829;82;21004;-71
2021/06/15 11:10:58;;;;;;;5.80;3.52;;;;;;;31.77;40.47;99147.06;1732200;82;20853;-72
2021/06/15 11:13:53;;;;;;;7.62;3.70;;;;;;;31.91;40.20;99151.32;1729100;81;21008;-72
2021/06/15 11:16:27;;;;;;;6.67;3.60;;;;;;;31.97;39.32;99140.92;1731678;81;21132;-70
2021/06/15 11:19:17;;;;;;;3.55;3.25;;;;;;;32.05;39.86;99145.83;1704367;82;21455;-67
2021/06/15 11:21:49;;;;;;;6.22;3.58;;;;;;;32.01;37.03;99136.67;1725141;82;21035;-75
2021/06/15 11:24:27;;;;;;;6.78;3.60;;;;;;;31.87;39.87;99140.75;1727309;82;20936;-73
2021/06/15 11:26:57;;;;;;;4.70;3.85;;;;;;;31.82;37.43;99136.48;1687469;83;21012;-72
2021/06/15 11:29:36;;;;;;;4.60;3.55;;;;;;;31.78;36.93;99123.87;1662996;84;21144;-71
2021/06/15 11:32:30;;;;;;;9.33;3.60;;;;;;;31.58;38.32;99122.08;1721235;82;20889;-68
2021/06/15 11:35:04;;;;;;;4.17;3.72;;;;;;;31.25;39.85;99118.19;1718868;82;20982;-73
2021/06/15 11:37:46;;;;;;;4.83;3.67;;;;;;;30.83;39.67;99118.61;1721670;82;21002;-70
2021/06/15 11:40:33;;;;;;;5.00;3.50;;;;;;;30.50;40.41;99115.41;1729016;82;20839;-72
2021/06/15 11:43:17;;;;;;;4.28;3.52;;;;;;;30.31;41.57;99105.19;1712846;82;21166;-71
2021/06/15 11:45:51;;;;;;;4.67;2.50;;;;;;;30.38;39.21;99104.93;1717606;82;21050;-72
2021/06/15 11:48:38;;;;;;;6.00;2.42;;;;;;;30.50;37.46;99104.86;1710221;82;21530;-72
2021/06/15 11:51:09;;;;;;;9.75;3.80;;;;;;;30.32;37.80;99106.14;1709518;82;21446;-71
2021/06/15 11:53:38;;;;;;;4.42;2.55;;;;;;;30.03;37.14;99102.16;1714222;82;21137;-70
2021/06/15 11:56:11;;;;;;;5.07;2.87;;;;;;;29.72;38.19;99090.68;1719959;82;20895;-70
2021/06/15 11:58:43;;;;;;;;;;;;;;;29.72;40.09;99090.68;1719477;82;21450;-72